sensor_id;sensor_type;location;lat;lon;timestamp;pressure;altitude;pressure_sealevel;temperature;humidity
59168;BME280;70412;55.048;73.268;2023-09-08T00:02:54;100058.28;;;2.82;100.00
59168;BME280;70412;55.048;73.268;2023-09-08T00:05:57;100051.00;;;2.49;100.00
59168;BME280;70412;55.048;73.268;2023-09-08T00:08:59;100054.06;;;2.59;100.00
59168;BME280;70412;55.048;73.268;2023-09-08T00:12:02;100061.72;;;2.62;100.00
59168;BME280;70412;55.048;73.268;2023-09-08T00:15:08;100057.84;;;2.72;100.00
59168;BME280;70412;55.048;73.268;2023-09-08T00:18:10;100056.09;;;2.73;100.00
59168;BME280;70412;55.048;73.268;2023-09-08T00:21:13;100057.63;;;2.77;100.00
59168;BME280;70412;55.048;73.268;2023-09-08T00:24:16;100006.84;;;2.32;100.00
59168;BME280;70412;55.048;73.268;2023-09-08T00:27:19;100054.13;;;2.57;100.00
59168;BME280;70412;55.048;73.268;2023-09-08T00:30:22;100063.44;;;2.41;100.00
59168;BME280;70412;55.048;73.268;2023-09-08T00:33:25;100063.56;;;2.38;100.00
59168;BME280;70412;55.048;73.268;2023-09-08T00:36:27;100062.66;;;2.39;100.00
59168;BME280;70412;55.048;73.268;2023-09-08T00:39:30;100070.22;;;2.44;100.00
59168;BME280;70412;55.048;73.268;2023-09-08T00:42:33;100049.78;;;2.16;100.00
59168;BME280;70412;55.048;73.268;2023-09-08T00:45:42;100069.44;;;2.42;100.00
59168;BME280;70412;55.048;73.268;2023-09-08T00:48:45;100068.47;;;2.44;100.00
59168;BME280;70412;55.048;73.268;2023-09-08T00:51:48;100076.41;;;2.82;100.00
59168;BME280;70412;55.048;73.268;2023-09-08T00:54:50;100078.94;;;2.83;100.00
59168;BME280;70412;55.048;73.268;2023-09-08T00:57:53;100078.22;;;2.80;100.00
59168;BME280;70412;55.048;73.268;2023-09-08T01:00:55;100078.88;;;2.85;100.00
59168;BME280;70412;55.048;73.268;2023-09-08T01:04:01;100073.16;;;3.17;100.00
59168;BME280;70412;55.048;73.268;2023-09-08T01:07:04;100026.16;;;3.06;100.00
59168;BME280;70412;55.048;73.268;2023-09-08T01:10:07;100081.00;;;3.55;100.00
59168;BME280;70412;55.048;73.268;2023-09-08T01:13:21;100084.09;;;3.82;100.00
59168;BME280;70412;55.048;73.268;2023-09-08T01:16:24;100078.88;;;4.01;100.00
59168;BME280;70412;55.048;73.268;2023-09-08T01:19:26;100075.16;;;4.25;100.00
59168;BME280;70412;55.048;73.268;2023-09-08T01:22:31;100078.22;;;4.51;100.00
59168;BME280;70412;55.048;73.268;2023-09-08T01:26:07;100088.63;;;4.68;100.00
59168;BME280;70412;55.048;73.268;2023-09-08T01:29:11;100068.00;;;4.82;100.00
59168;BME280;70412;55.048;73.268;2023-09-08T01:32:15;100084.59;;;4.80;100.00
59168;BME280;70412;55.048;73.268;2023-09-08T01:35:18;100082.94;;;4.96;100.00
59168;BME280;70412;55.048;73.268;2023-09-08T01:38:21;100067.09;;;5.00;100.00
59168;BME280;70412;55.048;73.268;2023-09-08T01:41:24;100080.75;;;5.39;100.00
59168;BME280;70412;55.048;73.268;2023-09-08T01:44:31;100087.34;;;5.77;100.00
59168;BME280;70412;55.048;73.268;2023-09-08T01:47:34;100083.56;;;5.83;100.00
59168;BME280;70412;55.048;73.268;2023-09-08T01:50:37;100091.28;;;5.84;100.00
59168;BME280;70412;55.048;73.268;2023-09-08T01:53:39;100096.84;;;6.10;100.00
59168;BME280;70412;55.048;73.268;2023-09-08T01:56:42;100097.72;;;6.56;100.00
59168;BME280;70412;55.048;73.268;2023-09-08T01:59:44;100105.28;;;6.91;100.00
59168;BME280;70412;55.048;73.268;2023-09-08T02:02:47;100111.91;;;6.96;100.00
59168;BME280;70412;55.048;73.268;2023-09-08T02:05:49;100103.94;;;7.13;100.00
59168;BME280;70412;55.048;73.268;2023-09-08T02:08:52;100104.44;;;7.77;100.00
59168;BME280;70412;55.048;73.268;2023-09-08T02:11:54;100103.38;;;8.35;100.00
59168;BME280;70412;55.048;73.268;2023-09-08T02:14:57;100097.34;;;8.20;100.00
59168;BME280;70412;55.048;73.268;2023-09-08T02:18:00;100098.84;;;8.51;100.00
59168;BME280;70412;55.048;73.268;2023-09-08T02:21:02;100111.22;;;9.14;100.00
59168;BME280;70412;55.048;73.268;2023-09-08T02:24:05;100114.06;;;9.75;100.00
59168;BME280;70412;55.048;73.268;2023-09-08T02:27:11;100112.72;;;9.69;100.00
59168;BME280;70412;55.048;73.268;2023-09-08T02:30:13;100107.69;;;10.15;100.00
59168;BME280;70412;55.048;73.268;2023-09-08T02:33:15;100107.44;;;10.79;100.00
59168;BME280;70412;55.048;73.268;2023-09-08T02:36:18;100100.84;;;10.50;100.00
59168;BME280;70412;55.048;73.268;2023-09-08T02:39:28;100106.81;;;10.28;100.00
59168;BME280;70412;55.048;73.268;2023-09-08T02:42:30;100112.88;;;11.00;100.00
59168;BME280;70412;55.048;73.268;2023-09-08T02:45:43;100113.66;;;10.41;100.00
59168;BME280;70412;55.048;73.268;2023-09-08T02:48:46;100112.16;;;11.09;100.00
59168;BME280;70412;55.048;73.268;2023-09-08T02:51:49;100085.63;;;10.79;100.00
59168;BME280;70412;55.048;73.268;2023-09-08T02:54:52;100120.47;;;10.68;100.00
59168;BME280;70412;55.048;73.268;2023-09-08T02:57:54;100120.13;;;10.72;100.00
59168;BME280;70412;55.048;73.268;2023-09-08T03:00:57;100108.19;;;10.92;100.00
59168;BME280;70412;55.048;73.268;2023-09-08T03:04:00;100127.00;;;11.21;100.00
59168;BME280;70412;55.048;73.268;2023-09-08T03:07:04;100109.84;;;11.28;99.77
59168;BME280;70412;55.048;73.268;2023-09-08T03:10:07;100121.56;;;11.80;94.83
59168;BME280;70412;55.048;73.268;2023-09-08T03:13:10;100132.41;;;11.42;96.52
59168;BME280;70412;55.048;73.268;2023-09-08T03:16:12;100128.84;;;11.43;96.33
59168;BME280;70412;55.048;73.268;2023-09-08T03:19:14;100121.78;;;11.55;96.61
59168;BME280;70412;55.048;73.268;2023-09-08T03:22:17;100126.94;;;11.90;96.19
59168;BME280;70412;55.048;73.268;2023-09-08T03:25:19;100127.66;;;11.81;94.76
59168;BME280;70412;55.048;73.268;2023-09-08T03:28:21;100144.63;;;11.88;92.58
59168;BME280;70412;55.048;73.268;2023-09-08T03:31:25;100125.34;;;12.10;92.58
59168;BME280;70412;55.048;73.268;2023-09-08T03:34:30;100129.22;;;12.60;90.92
59168;BME280;70412;55.048;73.268;2023-09-08T03:37:36;100139.84;;;13.43;87.96
59168;BME280;70412;55.048;73.268;2023-09-08T03:40:40;100133.59;;;13.24;86.88
59168;BME280;70412;55.048;73.268;2023-09-08T03:43:43;100141.38;;;12.72;88.95
59168;BME280;70412;55.048;73.268;2023-09-08T03:46:48;100145.69;;;13.47;85.74
59168;BME280;70412;55.048;73.268;2023-09-08T03:49:50;100140.91;;;13.20;84.90
59168;BME280;70412;55.048;73.268;2023-09-08T03:52:53;100140.69;;;12.91;85.39
59168;BME280;70412;55.048;73.268;2023-09-08T03:55:55;100126.25;;;13.69;83.14
59168;BME280;70412;55.048;73.268;2023-09-08T03:58:58;100140.56;;;13.76;81.44
59168;BME280;70412;55.048;73.268;2023-09-08T04:02:01;100135.19;;;13.87;81.66
59168;BME280;70412;55.048;73.268;2023-09-08T04:05:04;100143.03;;;14.08;79.60
59168;BME280;70412;55.048;73.268;2023-09-08T04:08:06;100129.06;;;14.27;81.49
59168;BME280;70412;55.048;73.268;2023-09-08T04:11:09;100135.38;;;14.45;78.40
59168;BME280;70412;55.048;73.268;2023-09-08T04:14:12;100138.06;;;14.64;75.61
59168;BME280;70412;55.048;73.268;2023-09-08T04:17:15;100129.66;;;13.90;76.33
59168;BME280;70412;55.048;73.268;2023-09-08T04:20:18;100137.63;;;14.59;74.43
59168;BME280;70412;55.048;73.268;2023-09-08T04:23:20;100136.50;;;15.10;74.63
59168;BME280;70412;55.048;73.268;2023-09-08T04:26:23;100136.22;;;14.55;76.38
59168;BME280;70412;55.048;73.268;2023-09-08T04:29:26;100138.75;;;14.67;72.46
59168;BME280;70412;55.048;73.268;2023-09-08T04:32:28;100139.31;;;14.99;70.62
59168;BME280;70412;55.048;73.268;2023-09-08T04:35:32;100141.81;;;14.72;71.39
59168;BME280;70412;55.048;73.268;2023-09-08T04:38:36;100141.41;;;15.71;66.54
59168;BME280;70412;55.048;73.268;2023-09-08T04:41:38;100140.38;;;15.25;65.20
59168;BME280;70412;55.048;73.268;2023-09-08T04:44:42;100142.09;;;15.73;64.12
59168;BME280;70412;55.048;73.268;2023-09-08T04:47:45;100148.28;;;15.92;62.33
59168;BME280;70412;55.048;73.268;2023-09-08T04:50:49;100148.47;;;15.05;66.77
59168;BME280;70412;55.048;73.268;2023-09-08T04:53:53;100145.13;;;14.93;67.75
59168;BME280;70412;55.048;73.268;2023-09-08T04:56:56;100144.22;;;15.70;65.72
59168;BME280;70412;55.048;73.268;2023-09-08T05:00:00;100132.50;;;15.63;63.00
59168;BME280;70412;55.048;73.268;2023-09-08T05:03:04;100145.28;;;15.77;65.01
59168;BME280;70412;55.048;73.268;2023-09-08T05:06:07;100138.63;;;16.28;64.54
59168;BME280;70412;55.048;73.268;2023-09-08T05:09:10;100123.31;;;15.76;62.78
59168;BME280;70412;55.048;73.268;2023-09-08T05:12:13;100132.69;;;16.43;61.79
59168;BME280;70412;55.048;73.268;2023-09-08T05:15:16;100128.00;;;16.37;63.79
59168;BME280;70412;55.048;73.268;2023-09-08T05:18:23;100134.00;;;16.12;63.89
59168;BME280;70412;55.048;73.268;2023-09-08T05:21:30;100143.25;;;15.51;63.79
59168;BME280;70412;55.048;73.268;2023-09-08T05:24:32;100132.06;;;16.14;61.09
59168;BME280;70412;55.048;73.268;2023-09-08T05:27:35;100127.25;;;16.45;60.79
59168;BME280;70412;55.048;73.268;2023-09-08T05:30:38;100137.94;;;15.61;61.51
59168;BME280;70412;55.048;73.268;2023-09-08T05:33:41;100133.75;;;14.83;62.58
59168;BME280;70412;55.048;73.268;2023-09-08T05:36:44;100133.22;;;16.02;59.30
59168;BME280;70412;55.048;73.268;2023-09-08T05:39:47;100134.41;;;16.80;57.96
59168;BME280;70412;55.048;73.268;2023-09-08T05:42:49;100129.31;;;16.51;57.71
59168;BME280;70412;55.048;73.268;2023-09-08T05:45:53;100132.63;;;16.08;56.92
59168;BME280;70412;55.048;73.268;2023-09-08T05:48:55;100126.16;;;16.20;56.19
59168;BME280;70412;55.048;73.268;2023-09-08T05:51:58;100130.44;;;16.49;55.10
59168;BME280;70412;55.048;73.268;2023-09-08T05:55:02;100131.03;;;16.60;58.07
59168;BME280;70412;55.048;73.268;2023-09-08T05:58:05;100108.66;;;16.90;54.75
59168;BME280;70412;55.048;73.268;2023-09-08T06:01:09;100129.97;;;16.81;55.60
59168;BME280;70412;55.048;73.268;2023-09-08T06:04:12;100104.44;;;17.23;53.99
59168;BME280;70412;55.048;73.268;2023-09-08T06:07:14;100124.31;;;18.05;54.30
59168;BME280;70412;55.048;73.268;2023-09-08T06:10:18;100127.06;;;18.38;53.06
59168;BME280;70412;55.048;73.268;2023-09-08T06:13:22;100128.84;;;18.29;51.40
59168;BME280;70412;55.048;73.268;2023-09-08T06:16:26;100124.38;;;18.21;53.17
59168;BME280;70412;55.048;73.268;2023-09-08T06:19:28;100124.00;;;17.48;50.76
59168;BME280;70412;55.048;73.268;2023-09-08T06:22:31;100129.44;;;17.21;51.89
59168;BME280;70412;55.048;73.268;2023-09-08T06:25:35;100131.09;;;18.50;50.92
59168;BME280;70412;55.048;73.268;2023-09-08T06:28:39;100140.63;;;17.32;50.65
59168;BME280;70412;55.048;73.268;2023-09-08T06:31:45;100129.25;;;18.50;48.96
59168;BME280;70412;55.048;73.268;2023-09-08T06:34:47;100142.06;;;18.63;48.50
59168;BME280;70412;55.048;73.268;2023-09-08T06:37:50;100136.09;;;18.61;50.14
59168;BME280;70412;55.048;73.268;2023-09-08T06:40:52;100140.19;;;17.97;52.31
59168;BME280;70412;55.048;73.268;2023-09-08T06:43:56;100134.63;;;17.30;49.95
59168;BME280;70412;55.048;73.268;2023-09-08T06:47:00;100133.19;;;17.36;53.87
59168;BME280;70412;55.048;73.268;2023-09-08T06:50:03;100134.81;;;16.12;53.90
59168;BME280;70412;55.048;73.268;2023-09-08T06:53:06;100141.09;;;16.39;54.09
59168;BME280;70412;55.048;73.268;2023-09-08T06:56:10;100138.94;;;17.06;54.40
59168;BME280;70412;55.048;73.268;2023-09-08T06:59:13;100138.56;;;17.70;50.86
59168;BME280;70412;55.048;73.268;2023-09-08T07:02:16;100134.41;;;16.80;55.58
59168;BME280;70412;55.048;73.268;2023-09-08T07:05:32;100129.94;;;17.68;52.34
59168;BME280;70412;55.048;73.268;2023-09-08T07:08:36;100128.56;;;17.38;52.46
59168;BME280;70412;55.048;73.268;2023-09-08T07:11:39;100136.94;;;18.11;52.63
59168;BME280;70412;55.048;73.268;2023-09-08T07:14:43;100137.19;;;17.40;52.01
59168;BME280;70412;55.048;73.268;2023-09-08T07:17:45;100131.19;;;17.82;52.64
59168;BME280;70412;55.048;73.268;2023-09-08T07:20:48;100127.38;;;16.71;54.74
59168;BME280;70412;55.048;73.268;2023-09-08T07:23:52;100128.59;;;15.76;54.44
59168;BME280;70412;55.048;73.268;2023-09-08T07:26:56;100131.97;;;16.51;52.81
59168;BME280;70412;55.048;73.268;2023-09-08T07:29:59;100114.69;;;17.18;49.84
59168;BME280;70412;55.048;73.268;2023-09-08T07:33:02;100136.41;;;17.66;49.70
59168;BME280;70412;55.048;73.268;2023-09-08T07:36:07;100136.31;;;17.57;49.83
59168;BME280;70412;55.048;73.268;2023-09-08T07:39:12;100139.13;;;16.59;51.74
59168;BME280;70412;55.048;73.268;2023-09-08T07:42:15;100132.38;;;16.47;51.75
59168;BME280;70412;55.048;73.268;2023-09-08T07:45:17;100138.25;;;16.50;52.31
59168;BME280;70412;55.048;73.268;2023-09-08T07:48:20;100142.63;;;16.14;52.92
59168;BME280;70412;55.048;73.268;2023-09-08T07:51:22;100130.97;;;16.34;52.63
59168;BME280;70412;55.048;73.268;2023-09-08T07:54:24;100138.59;;;15.82;53.60
59168;BME280;70412;55.048;73.268;2023-09-08T07:57:27;100135.00;;;16.74;51.45
59168;BME280;70412;55.048;73.268;2023-09-08T08:00:31;100135.22;;;17.42;50.55
59168;BME280;70412;55.048;73.268;2023-09-08T08:03:34;100140.53;;;17.42;48.55
59168;BME280;70412;55.048;73.268;2023-09-08T08:06:38;100133.47;;;17.51;48.14
59168;BME280;70412;55.048;73.268;2023-09-08T08:09:40;100118.34;;;18.11;48.42
59168;BME280;70412;55.048;73.268;2023-09-08T08:12:43;100132.03;;;18.33;46.44
59168;BME280;70412;55.048;73.268;2023-09-08T08:15:46;100128.72;;;18.39;45.93
59168;BME280;70412;55.048;73.268;2023-09-08T08:18:49;100132.94;;;18.58;47.23
59168;BME280;70412;55.048;73.268;2023-09-08T08:21:52;100137.09;;;17.76;47.14
59168;BME280;70412;55.048;73.268;2023-09-08T08:24:54;100137.59;;;17.01;49.74
59168;BME280;70412;55.048;73.268;2023-09-08T08:27:57;100139.59;;;17.08;47.80
59168;BME280;70412;55.048;73.268;2023-09-08T08:31:00;100134.53;;;16.61;48.66
59168;BME280;70412;55.048;73.268;2023-09-08T08:34:02;100138.53;;;17.18;50.30
59168;BME280;70412;55.048;73.268;2023-09-08T08:37:05;100129.66;;;17.53;47.42
59168;BME280;70412;55.048;73.268;2023-09-08T08:40:09;100145.81;;;17.16;51.22
59168;BME280;70412;55.048;73.268;2023-09-08T08:43:15;100111.34;;;16.45;51.21
59168;BME280;70412;55.048;73.268;2023-09-08T08:46:36;100140.69;;;16.79;50.74
59168;BME280;70412;55.048;73.268;2023-09-08T08:50:02;100124.69;;;16.35;51.66
59168;BME280;70412;55.048;73.268;2023-09-08T08:53:06;100138.41;;;16.21;51.45
59168;BME280;70412;55.048;73.268;2023-09-08T08:56:11;100139.75;;;16.53;50.89
59168;BME280;70412;55.048;73.268;2023-09-08T08:59:13;100096.72;;;16.05;54.74
59168;BME280;70412;55.048;73.268;2023-09-08T09:02:17;100136.72;;;15.93;52.32
59168;BME280;70412;55.048;73.268;2023-09-08T09:05:20;100136.13;;;16.26;52.30
59168;BME280;70412;55.048;73.268;2023-09-08T09:08:23;100129.28;;;16.33;51.46
59168;BME280;70412;55.048;73.268;2023-09-08T09:11:26;100117.19;;;16.31;50.52
59168;BME280;70412;55.048;73.268;2023-09-08T09:14:33;100137.34;;;16.14;50.83
59168;BME280;70412;55.048;73.268;2023-09-08T09:17:37;100135.28;;;15.71;51.65
59168;BME280;70412;55.048;73.268;2023-09-08T09:20:41;100123.88;;;15.70;50.86
59168;BME280;70412;55.048;73.268;2023-09-08T09:23:55;100138.91;;;15.60;52.55
59168;BME280;70412;55.048;73.268;2023-09-08T09:26:57;100130.03;;;15.51;54.31
59168;BME280;70412;55.048;73.268;2023-09-08T09:30:00;100152.56;;;15.65;50.64
59168;BME280;70412;55.048;73.268;2023-09-08T09:33:04;100135.19;;;16.00;49.16
59168;BME280;70412;55.048;73.268;2023-09-08T09:36:07;100139.16;;;16.13;49.92
59168;BME280;70412;55.048;73.268;2023-09-08T09:39:12;100128.69;;;16.57;49.71
59168;BME280;70412;55.048;73.268;2023-09-08T09:42:14;100129.94;;;16.18;50.76
59168;BME280;70412;55.048;73.268;2023-09-08T09:45:17;100072.97;;;15.68;52.95
59168;BME280;70412;55.048;73.268;2023-09-08T09:48:21;100131.06;;;15.88;52.45
59168;BME280;70412;55.048;73.268;2023-09-08T09:51:28;100134.78;;;15.95;60.26
59168;BME280;70412;55.048;73.268;2023-09-08T09:54:31;100135.28;;;15.80;59.85
59168;BME280;70412;55.048;73.268;2023-09-08T09:57:34;100130.44;;;16.49;58.33
59168;BME280;70412;55.048;73.268;2023-09-08T10:00:39;100133.09;;;17.46;52.50
59168;BME280;70412;55.048;73.268;2023-09-08T10:03:58;100129.34;;;17.56;52.11
59168;BME280;70412;55.048;73.268;2023-09-08T10:07:01;100135.63;;;18.15;50.83
59168;BME280;70412;55.048;73.268;2023-09-08T10:10:04;100146.44;;;18.30;48.95
59168;BME280;70412;55.048;73.268;2023-09-08T10:13:10;100130.94;;;18.09;50.77
59168;BME280;70412;55.048;73.268;2023-09-08T10:16:16;100141.97;;;17.62;48.08
59168;BME280;70412;55.048;73.268;2023-09-08T10:19:19;100136.31;;;16.42;50.15
59168;BME280;70412;55.048;73.268;2023-09-08T10:22:28;100135.91;;;17.00;50.09
59168;BME280;70412;55.048;73.268;2023-09-08T10:25:37;100134.66;;;17.13;47.14
59168;BME280;70412;55.048;73.268;2023-09-08T10:28:41;100141.88;;;17.20;49.77
59168;BME280;70412;55.048;73.268;2023-09-08T10:31:44;100139.16;;;17.82;50.99
59168;BME280;70412;55.048;73.268;2023-09-08T10:34:47;100142.81;;;17.37;48.83
59168;BME280;70412;55.048;73.268;2023-09-08T10:37:51;100147.72;;;17.50;48.63
59168;BME280;70412;55.048;73.268;2023-09-08T10:41:39;100148.91;;;17.55;49.43
59168;BME280;70412;55.048;73.268;2023-09-08T10:44:17;100137.47;;;16.58;52.69
59168;BME280;70412;55.048;73.268;2023-09-08T10:47:22;100151.25;;;16.16;51.96
59168;BME280;70412;55.048;73.268;2023-09-08T10:50:32;100151.22;;;15.98;51.54
59168;BME280;70412;55.048;73.268;2023-09-08T10:53:58;100151.91;;;16.45;51.35
59168;BME280;70412;55.048;73.268;2023-09-08T10:57:06;100138.06;;;16.34;53.81
59168;BME280;70412;55.048;73.268;2023-09-08T11:00:17;100142.22;;;16.36;54.19
59168;BME280;70412;55.048;73.268;2023-09-08T11:03:27;100153.97;;;16.24;53.53
59168;BME280;70412;55.048;73.268;2023-09-08T11:06:29;100153.09;;;16.33;53.24
59168;BME280;70412;55.048;73.268;2023-09-08T11:09:38;100148.53;;;16.53;53.48
59168;BME280;70412;55.048;73.268;2023-09-08T11:12:41;100156.50;;;16.71;52.46
59168;BME280;70412;55.048;73.268;2023-09-08T11:15:44;100155.09;;;18.32;48.71
59168;BME280;70412;55.048;73.268;2023-09-08T11:18:47;100155.19;;;17.80;50.84
59168;BME280;70412;55.048;73.268;2023-09-08T11:21:49;100152.69;;;17.79;49.29
59168;BME280;70412;55.048;73.268;2023-09-08T11:24:52;100160.19;;;16.96;51.55
59168;BME280;70412;55.048;73.268;2023-09-08T11:27:59;100154.81;;;16.25;54.06
59168;BME280;70412;55.048;73.268;2023-09-08T11:31:02;100155.25;;;16.48;51.21
59168;BME280;70412;55.048;73.268;2023-09-08T11:34:05;100152.50;;;16.39;52.20
59168;BME280;70412;55.048;73.268;2023-09-08T11:37:12;100167.81;;;16.18;54.02
59168;BME280;70412;55.048;73.268;2023-09-08T11:40:15;100161.38;;;18.23;47.72
59168;BME280;70412;55.048;73.268;2023-09-08T11:43:19;100158.38;;;18.76;47.90
59168;BME280;70412;55.048;73.268;2023-09-08T11:46:22;100156.81;;;20.35;46.15
59168;BME280;70412;55.048;73.268;2023-09-08T11:49:24;100165.50;;;20.60;41.16
59168;BME280;70412;55.048;73.268;2023-09-08T11:52:27;100168.09;;;16.88;52.13
59168;BME280;70412;55.048;73.268;2023-09-08T11:55:30;100145.66;;;16.19;60.23
59168;BME280;70412;55.048;73.268;2023-09-08T11:58:33;100160.75;;;16.82;61.11
59168;BME280;70412;55.048;73.268;2023-09-08T12:01:38;100155.91;;;22.16;43.78
59168;BME280;70412;55.048;73.268;2023-09-08T12:04:41;100148.84;;;22.45;43.07
59168;BME280;70412;55.048;73.268;2023-09-08T12:07:44;100156.13;;;17.01;54.29
59168;BME280;70412;55.048;73.268;2023-09-08T12:10:47;100173.38;;;16.42;58.77
59168;BME280;70412;55.048;73.268;2023-09-08T12:13:49;100166.50;;;18.24;50.65
59168;BME280;70412;55.048;73.268;2023-09-08T12:17:05;100155.28;;;22.14;42.08
59168;BME280;70412;55.048;73.268;2023-09-08T12:20:17;100152.00;;;20.61;41.65
59168;BME280;70412;55.048;73.268;2023-09-08T12:23:21;100162.31;;;19.78;44.23
59168;BME280;70412;55.048;73.268;2023-09-08T12:26:28;100168.56;;;18.39;47.18
59168;BME280;70412;55.048;73.268;2023-09-08T12:29:32;100163.25;;;20.72;43.50
59168;BME280;70412;55.048;73.268;2023-09-08T12:32:35;100162.81;;;19.82;43.88
59168;BME280;70412;55.048;73.268;2023-09-08T12:35:39;100171.69;;;19.01;47.12
59168;BME280;70412;55.048;73.268;2023-09-08T12:38:46;100167.56;;;17.98;49.99
59168;BME280;70412;55.048;73.268;2023-09-08T12:41:49;100171.63;;;17.32;50.71
59168;BME280;70412;55.048;73.268;2023-09-08T12:44:52;100170.91;;;16.86;57.27
59168;BME280;70412;55.048;73.268;2023-09-08T12:47:59;100165.16;;;16.18;60.38
59168;BME280;70412;55.048;73.268;2023-09-08T12:51:01;100165.53;;;15.96;65.74
59168;BME280;70412;55.048;73.268;2023-09-08T12:54:05;100177.19;;;15.56;65.96
59168;BME280;70412;55.048;73.268;2023-09-08T12:57:08;100172.88;;;15.55;70.60
59168;BME280;70412;55.048;73.268;2023-09-08T13:00:11;100176.00;;;15.02;74.93
59168;BME280;70412;55.048;73.268;2023-09-08T13:03:14;100174.66;;;14.39;78.96
59168;BME280;70412;55.048;73.268;2023-09-08T13:06:16;100174.41;;;14.01;79.88
59168;BME280;70412;55.048;73.268;2023-09-08T13:09:19;100180.06;;;13.97;80.57
59168;BME280;70412;55.048;73.268;2023-09-08T13:12:22;100184.22;;;13.69;86.10
59168;BME280;70412;55.048;73.268;2023-09-08T13:15:25;100188.00;;;13.46;88.16
59168;BME280;70412;55.048;73.268;2023-09-08T13:18:27;100180.44;;;13.92;85.02
59168;BME280;70412;55.048;73.268;2023-09-08T13:21:30;100184.72;;;13.21;86.50
59168;BME280;70412;55.048;73.268;2023-09-08T13:24:33;100172.78;;;12.53;92.44
59168;BME280;70412;55.048;73.268;2023-09-08T13:27:35;100199.34;;;11.83;97.01
59168;BME280;70412;55.048;73.268;2023-09-08T13:30:38;100200.69;;;11.42;99.22
59168;BME280;70412;55.048;73.268;2023-09-08T13:33:40;100187.91;;;11.02;100.00
59168;BME280;70412;55.048;73.268;2023-09-08T13:36:43;100200.69;;;10.59;100.00
59168;BME280;70412;55.048;73.268;2023-09-08T13:39:46;100208.88;;;10.42;100.00
59168;BME280;70412;55.048;73.268;2023-09-08T13:42:48;100208.22;;;10.27;100.00
59168;BME280;70412;55.048;73.268;2023-09-08T13:45:51;100210.41;;;10.08;100.00
59168;BME280;70412;55.048;73.268;2023-09-08T13:48:54;100212.03;;;9.85;100.00
59168;BME280;70412;55.048;73.268;2023-09-08T13:51:56;100211.06;;;9.73;100.00
59168;BME280;70412;55.048;73.268;2023-09-08T13:54:59;100213.16;;;9.43;100.00
59168;BME280;70412;55.048;73.268;2023-09-08T13:58:02;100213.47;;;9.51;100.00
59168;BME280;70412;55.048;73.268;2023-09-08T14:01:07;100216.59;;;9.31;100.00
59168;BME280;70412;55.048;73.268;2023-09-08T14:04:09;100224.78;;;9.12;100.00
59168;BME280;70412;55.048;73.268;2023-09-08T14:07:13;100229.53;;;9.84;100.00
59168;BME280;70412;55.048;73.268;2023-09-08T14:10:16;100231.66;;;9.27;100.00
59168;BME280;70412;55.048;73.268;2023-09-08T14:13:19;100244.69;;;8.73;100.00
59168;BME280;70412;55.048;73.268;2023-09-08T14:16:21;100233.09;;;8.50;100.00
59168;BME280;70412;55.048;73.268;2023-09-08T14:19:24;100240.63;;;8.55;100.00
59168;BME280;70412;55.048;73.268;2023-09-08T14:22:27;100248.78;;;8.50;100.00
59168;BME280;70412;55.048;73.268;2023-09-08T14:25:29;100248.03;;;8.34;100.00
59168;BME280;70412;55.048;73.268;2023-09-08T14:28:32;100251.03;;;8.42;100.00
59168;BME280;70412;55.048;73.268;2023-09-08T14:31:37;100249.72;;;8.21;100.00
59168;BME280;70412;55.048;73.268;2023-09-08T14:34:39;100254.13;;;8.20;100.00
59168;BME280;70412;55.048;73.268;2023-09-08T14:37:42;100259.25;;;8.36;100.00
59168;BME280;70412;55.048;73.268;2023-09-08T14:40:45;100200.09;;;8.07;100.00
59168;BME280;70412;55.048;73.268;2023-09-08T14:43:55;100261.16;;;8.75;100.00
59168;BME280;70412;55.048;73.268;2023-09-08T14:46:58;100240.44;;;8.99;100.00
59168;BME280;70412;55.048;73.268;2023-09-08T14:50:00;100266.53;;;9.13;100.00
59168;BME280;70412;55.048;73.268;2023-09-08T14:53:05;100256.88;;;9.01;100.00
59168;BME280;70412;55.048;73.268;2023-09-08T14:56:08;100263.38;;;8.81;100.00
59168;BME280;70412;55.048;73.268;2023-09-08T14:59:12;100263.84;;;8.74;100.00
59168;BME280;70412;55.048;73.268;2023-09-08T15:02:15;100267.75;;;8.81;100.00
59168;BME280;70412;55.048;73.268;2023-09-08T15:05:20;100263.31;;;8.69;100.00
59168;BME280;70412;55.048;73.268;2023-09-08T15:08:22;100272.09;;;8.68;100.00
59168;BME280;70412;55.048;73.268;2023-09-08T15:11:25;100255.34;;;8.70;100.00
59168;BME280;70412;55.048;73.268;2023-09-08T15:14:28;100270.59;;;8.63;100.00
59168;BME280;70412;55.048;73.268;2023-09-08T15:17:32;100274.03;;;9.05;100.00
59168;BME280;70412;55.048;73.268;2023-09-08T15:20:34;100271.81;;;8.99;100.00
59168;BME280;70412;55.048;73.268;2023-09-08T15:23:37;100275.31;;;8.85;100.00
59168;BME280;70412;55.048;73.268;2023-09-08T15:26:40;100271.03;;;9.26;100.00
59168;BME280;70412;55.048;73.268;2023-09-08T15:29:42;100268.63;;;9.35;100.00
59168;BME280;70412;55.048;73.268;2023-09-08T15:32:45;100276.38;;;9.37;100.00
59168;BME280;70412;55.048;73.268;2023-09-08T15:35:47;100277.84;;;9.41;100.00
59168;BME280;70412;55.048;73.268;2023-09-08T15:38:50;100268.56;;;9.22;100.00
59168;BME280;70412;55.048;73.268;2023-09-08T15:41:53;100270.09;;;9.27;100.00
59168;BME280;70412;55.048;73.268;2023-09-08T15:44:56;100278.47;;;9.32;100.00
59168;BME280;70412;55.048;73.268;2023-09-08T15:47:59;100273.72;;;9.24;100.00
59168;BME280;70412;55.048;73.268;2023-09-08T15:51:02;100278.34;;;9.33;100.00